Time;durP1;ratioP1;P1;durP2;ratioP2;P2;SDS_P1;SDS_P2;PMS_P1;PMS_P2;Temp;Humidity;BMP_temperature;BMP_pressure;BME280_temperature;BME280_humidity;BME280_pressure;Samples;Min_cycle;Max_cycle;Signal;HPM_P1;HPM_P2
2022/12/31 00:00:14;;;;;;;186.85;71.97;;;;;;;3.68;70.37;102014.23;1765088;80;25773;-64
2022/12/31 00:02:42;;;;;;;155.97;59.95;;;;;;;3.62;70.37;102011.83;1765058;80;25722;-64
2022/12/31 00:05:10;;;;;;;147.50;57.33;;;;;;;3.60;70.31;102013.67;1764856;79;25785;-64
2022/12/31 00:07:37;;;;;;;114.40;48.23;;;;;;;3.58;70.38;102011.53;1765333;79;27471;-64
2022/12/31 00:10:05;;;;;;;107.55;46.23;;;;;;;3.54;70.46;102019.25;1765088;79;25763;-63
2022/12/31 00:12:32;;;;;;;112.72;45.35;;;;;;;3.51;70.54;102027.34;1765254;81;26300;-64
2022/12/31 00:14:59;;;;;;;103.25;48.13;;;;;;;3.49;70.49;102028.73;1764965;81;25785;-64
2022/12/31 00:17:25;;;;;;;122.85;49.45;;;;;;;3.44;70.33;102035.56;1763561;80;25822;-64
2022/12/31 00:19:52;;;;;;;122.72;54.55;;;;;;;3.43;70.31;102028.95;1764937;81;27064;-63
2022/12/31 00:22:19;;;;;;;115.00;48.90;;;;;;;3.41;70.37;102032.12;1765034;81;25687;-64
2022/12/31 00:24:46;;;;;;;114.47;49.63;;;;;;;3.38;70.50;102033.11;1765037;81;25793;-64
2022/12/31 00:27:13;;;;;;;98.12;45.03;;;;;;;3.36;70.42;102050.92;1764944;81;25811;-63
2022/12/31 00:29:40;;;;;;;86.50;43.35;;;;;;;3.31;70.47;102055.56;1765002;81;25781;-64
2022/12/31 00:32:07;;;;;;;124.35;52.62;;;;;;;3.26;70.39;102045.09;1765020;79;28583;-64
2022/12/31 00:34:35;;;;;;;122.25;53.90;;;;;;;3.20;70.37;102049.31;1765674;80;25606;-64
2022/12/31 00:37:02;;;;;;;146.43;61.70;;;;;;;3.14;70.38;102046.86;1791636;80;25765;-64
2022/12/31 00:39:30;;;;;;;124.10;56.08;;;;;;;3.08;70.54;102045.33;1742500;82;25807;-63
2022/12/31 00:41:57;;;;;;;101.95;47.95;;;;;;;3.03;70.48;102044.61;1759484;80;25993;-63
2022/12/31 00:44:24;;;;;;;82.15;41.68;;;;;;;2.97;70.22;102043.03;1766971;81;29659;-63
2022/12/31 00:46:51;;;;;;;81.22;40.75;;;;;;;2.92;70.20;102041.02;1738210;82;25749;-63
2022/12/31 00:49:17;;;;;;;89.35;46.80;;;;;;;2.86;70.11;102042.58;1762864;81;26318;-64
2022/12/31 00:51:45;;;;;;;91.57;44.73;;;;;;;2.82;70.09;102046.25;1772734;80;25796;-64
2022/12/31 00:54:13;;;;;;;75.20;40.73;;;;;;;2.78;70.28;102045.98;1772757;80;26473;-64
2022/12/31 00:56:39;;;;;;;81.08;42.62;;;;;;;2.71;70.28;102055.06;1782960;79;28100;-63
2022/12/31 00:59:06;;;;;;;69.67;38.15;;;;;;;2.64;70.40;102053.95;1794916;79;25467;-64
2022/12/31 01:01:39;;;;;;;83.45;41.55;;;;;;;2.61;70.43;102059.36;1794466;79;25718;-64
2022/12/31 01:04:13;;;;;;;86.32;42.50;;;;;;;2.54;70.43;102063.16;1729400;83;25766;-64
2022/12/31 01:06:42;;;;;;;90.32;44.18;;;;;;;2.48;70.50;102063.38;1725059;83;26380;-64
2022/12/31 01:09:11;;;;;;;87.02;43.05;;;;;;;2.42;70.55;102053.82;1726746;83;28278;-64
2022/12/31 01:11:38;;;;;;;91.12;45.15;;;;;;;2.43;70.62;102057.33;1733546;82;25868;-64
2022/12/31 01:14:11;;;;;;;84.05;43.10;;;;;;;2.39;70.59;102056.57;1765312;81;25753;-64
2022/12/31 01:16:45;;;;;;;89.35;45.73;;;;;;;2.37;70.69;102057.11;1765268;81;25822;-63
2022/12/31 01:19:17;;;;;;;73.37;40.40;;;;;;;2.37;70.74;102048.25;1766897;79;25540;-64
2022/12/31 01:21:45;;;;;;;77.40;39.30;;;;;;;2.37;70.86;102045.59;1762011;80;27575;-64
2022/12/31 01:24:13;;;;;;;67.78;36.65;;;;;;;2.34;70.86;102036.80;1770118;81;25677;-64
2022/12/31 01:26:41;;;;;;;61.23;35.40;;;;;;;2.30;70.91;102044.92;1773026;80;25751;-64
2022/12/31 01:29:09;;;;;;;65.90;35.92;;;;;;;2.26;70.93;102039.33;1773385;80;25726;-64
2022/12/31 01:31:37;;;;;;;62.90;34.67;;;;;;;2.22;70.76;102041.66;1772559;79;25795;-64
2022/12/31 01:34:06;;;;;;;60.45;35.38;;;;;;;2.14;70.70;102045.44;1760135;81;27507;-64
2022/12/31 01:36:35;;;;;;;57.27;34.63;;;;;;;2.05;70.66;102040.44;1738746;82;25951;-64
2022/12/31 01:39:06;;;;;;;60.33;34.70;;;;;;;2.01;70.65;102052.08;1762964;81;25801;-64
2022/12/31 01:41:38;;;;;;;57.00;33.65;;;;;;;1.95;70.53;102042.97;1762612;80;26449;-64
2022/12/31 01:44:25;;;;;;;58.42;34.13;;;;;;;1.88;70.46;102044.97;1763564;81;25528;-64
2022/12/31 01:46:58;;;;;;;52.85;32.88;;;;;;;1.78;70.18;102046.17;1758188;81;28416;-64
2022/12/31 01:49:35;;;;;;;58.00;33.15;;;;;;;1.65;70.16;102046.54;1757607;81;25808;-64
2022/12/31 01:52:10;;;;;;;57.85;32.55;;;;;;;1.55;70.16;102045.08;1763520;81;25776;-64
2022/12/31 01:54:42;;;;;;;56.02;32.00;;;;;;;1.47;70.31;102047.09;1772405;80;25929;-64
2022/12/31 01:57:11;;;;;;;57.62;32.17;;;;;;;1.36;70.30;102046.95;1741326;82;25773;-64
2022/12/31 01:59:38;;;;;;;54.25;32.05;;;;;;;1.27;70.47;102049.02;1742269;82;27481;-64
2022/12/31 02:02:05;;;;;;;49.83;30.45;;;;;;;1.24;70.65;102039.38;1710581;83;25670;-64
2022/12/31 02:04:32;;;;;;;57.65;32.33;;;;;;;1.21;70.73;102044.28;1742280;82;25725;-64
2022/12/31 02:07:05;;;;;;;52.75;31.57;;;;;;;1.21;70.92;102046.09;1710638;83;25815;-64
2022/12/31 02:09:37;;;;;;;56.77;34.10;;;;;;;1.21;70.98;102042.96;1742357;82;25714;-64
2022/12/31 02:12:06;;;;;;;53.10;31.60;;;;;;;1.19;71.10;102051.44;1710929;83;27500;-64
2022/12/31 02:14:38;;;;;;;50.75;30.23;;;;;;;1.19;71.17;102047.47;1742195;82;25727;-64
2022/12/31 02:17:13;;;;;;;52.38;31.57;;;;;;;1.16;71.14;102053.31;1741462;82;25757;-64
2022/12/31 02:20:33;;;;;;;55.35;32.83;;;;;;;1.12;71.06;102049.00;1743283;79;25812;-63
2022/12/31 02:23:34;;;;;;;55.83;33.48;;;;;;;1.10;71.34;102049.05;1741459;82;25805;-63
2022/12/31 02:26:50;;;;;;;59.83;33.02;;;;;;;1.04;71.30;102047.88;1734009;82;27483;-64
2022/12/31 02:30:08;;;;;;;52.83;30.90;;;;;;;1.03;71.41;102052.80;1783728;80;25985;-63
2022/12/31 02:32:50;;;;;;;53.08;32.58;;;;;;;1.04;71.61;102059.36;1786524;80;25750;-63
2022/12/31 02:35:47;;;;;;;51.08;30.50;;;;;;;1.04;71.33;102058.48;1786210;80;25890;-63
2022/12/31 02:38:19;;;;;;;59.65;35.58;;;;;;;1.03;71.41;102057.63;1776634;80;25416;-64
2022/12/31 02:40:47;;;;;;;60.75;33.35;;;;;;;1.03;71.55;102055.44;1786352;80;28548;-64
2022/12/31 02:43:14;;;;;;;59.55;32.23;;;;;;;1.02;71.73;102055.03;1781354;80;25511;-64
2022/12/31 02:45:49;;;;;;;57.53;32.10;;;;;;;1.01;71.65;102055.94;1778020;80;25749;-64
2022/12/31 02:48:40;;;;;;;58.90;33.38;;;;;;;1.01;71.66;102053.28;1778132;80;26674;-65
2022/12/31 02:51:21;;;;;;;58.55;35.03;;;;;;;0.98;71.62;102052.92;1760231;80;25996;-63
2022/12/31 02:54:31;;;;;;;67.97;36.13;;;;;;;0.98;71.61;102057.33;1762683;81;28312;-62
2022/12/31 02:57:09;;;;;;;62.80;34.08;;;;;;;0.99;71.78;102054.63;1763681;80;25840;-63
2022/12/31 03:02:32;;;;;;;60.43;34.33;;;;;;;0.99;71.67;102067.02;1764316;81;26545;-64
2022/12/31 03:05:01;;;;;;;69.60;38.55;;;;;;;0.99;71.74;102071.00;1763834;81;26376;-64
2022/12/31 03:07:31;;;;;;;78.72;41.77;;;;;;;0.96;71.68;102075.05;1764060;81;27476;-64
2022/12/31 03:10:00;;;;;;;80.32;43.00;;;;;;;0.91;71.75;102077.38;1763456;80;25772;-64
2022/12/31 03:12:46;;;;;;;70.47;41.05;;;;;;;0.87;71.83;102071.73;1734910;81;25792;-63
2022/12/31 03:15:21;;;;;;;70.85;40.58;;;;;;;0.87;71.87;102070.41;1764651;81;25814;-64
2022/12/31 03:18:11;;;;;;;73.47;41.50;;;;;;;0.85;71.76;102069.58;1777870;80;25788;-63
2022/12/31 03:23:40;;;;;;;94.15;52.60;;;;;;;0.78;71.77;102079.94;1777271;79;25952;-63
2022/12/31 03:26:10;;;;;;;81.63;46.53;;;;;;;0.75;71.84;102072.94;1777893;80;25731;-64
2022/12/31 03:28:42;;;;;;;80.00;44.03;;;;;;;0.73;71.93;102072.58;1763964;80;25736;-64
2022/12/31 03:31:09;;;;;;;73.52;41.15;;;;;;;0.70;71.99;102081.92;1734193;80;25888;-64
2022/12/31 03:33:39;;;;;;;61.02;37.35;;;;;;;0.71;72.19;102085.88;1735139;81;27554;-63
2022/12/31 03:36:11;;;;;;;66.77;40.08;;;;;;;0.69;71.97;102088.12;1764055;81;25689;-63
2022/12/31 03:38:39;;;;;;;74.72;42.78;;;;;;;0.64;71.71;102082.09;1774584;80;25748;-63
2022/12/31 03:41:08;;;;;;;66.82;36.88;;;;;;;0.58;71.73;102084.44;1786120;80;26590;-63
2022/12/31 03:43:35;;;;;;;61.70;35.52;;;;;;;0.56;71.63;102088.89;1776050;80;25799;-63
2022/12/31 03:46:02;;;;;;;67.90;37.05;;;;;;;0.51;71.60;102086.83;1769096;81;27470;-63
2022/12/31 03:48:29;;;;;;;62.78;35.52;;;;;;;0.49;71.81;102093.94;1769192;80;25732;-63
2022/12/31 03:50:55;;;;;;;63.33;33.80;;;;;;;0.49;71.93;102085.98;1769506;80;25793;-63
2022/12/31 03:53:22;;;;;;;63.10;35.10;;;;;;;0.49;71.97;102093.50;1769181;80;26027;-64
2022/12/31 03:55:53;;;;;;;62.35;33.75;;;;;;;0.50;72.16;102089.05;1768937;81;25769;-63
2022/12/31 03:58:22;;;;;;;67.37;36.75;;;;;;;0.49;72.09;102088.20;1769238;80;27638;-63
2022/12/31 04:00:49;;;;;;;57.25;32.93;;;;;;;0.52;72.17;102093.40;1755614;80;25878;-63
2022/12/31 04:03:16;;;;;;;60.38;36.23;;;;;;;0.51;72.20;102089.01;1749291;80;25719;-63
2022/12/31 04:05:43;;;;;;;54.48;32.93;;;;;;;0.47;71.92;102082.06;1751037;81;26788;-63
2022/12/31 04:08:10;;;;;;;65.52;35.30;;;;;;;0.43;71.98;102080.39;1751309;81;25768;-63
2022/12/31 04:10:37;;;;;;;67.05;35.90;;;;;;;0.41;72.18;102089.70;1715846;82;27590;-64
2022/12/31 04:13:04;;;;;;;66.12;36.98;;;;;;;0.40;72.31;102097.23;1715490;81;25733;-63
2022/12/31 04:15:31;;;;;;;64.17;36.70;;;;;;;0.42;72.46;102098.50;1714138;82;25767;-64
2022/12/31 04:17:58;;;;;;;62.08;34.13;;;;;;;0.43;72.50;102090.98;1744376;82;27974;-63
2022/12/31 04:20:25;;;;;;;58.90;35.28;;;;;;;0.45;72.48;102097.97;1744321;82;25463;-63
2022/12/31 04:22:51;;;;;;;62.40;34.18;;;;;;;0.43;72.51;102097.16;1745065;82;27506;-63
2022/12/31 04:25:18;;;;;;;66.50;37.25;;;;;;;0.44;72.39;102099.34;1744383;82;25867;-63
2022/12/31 04:27:46;;;;;;;60.90;33.40;;;;;;;0.40;72.08;102096.38;1744470;82;25810;-63
2022/12/31 04:30:14;;;;;;;59.98;34.27;;;;;;;0.38;72.22;102099.03;1735017;81;27879;-63
2022/12/31 04:32:41;;;;;;;61.10;34.92;;;;;;;0.37;72.27;102096.44;1713464;83;27301;-63
2022/12/31 04:35:10;;;;;;;71.65;39.63;;;;;;;0.35;72.41;102099.13;1714170;83;28347;-63
2022/12/31 04:37:38;;;;;;;65.60;37.00;;;;;;;0.35;72.56;102092.95;1704293;83;25839;-63
2022/12/31 04:40:08;;;;;;;57.78;35.63;;;;;;;0.36;72.60;102096.02;1687849;84;25807;-63
2022/12/31 04:42:36;;;;;;;58.10;34.98;;;;;;;0.35;72.55;102104.86;1660015;83;25888;-63
2022/12/31 04:45:05;;;;;;;62.85;34.03;;;;;;;0.32;72.58;102108.46;1769723;81;25769;-63
2022/12/31 04:47:32;;;;;;;63.78;34.45;;;;;;;0.30;72.39;102116.88;1754028;81;27650;-64
2022/12/31 04:49:59;;;;;;;63.80;34.38;;;;;;;0.28;72.50;102127.52;1752794;81;25826;-64
2022/12/31 04:52:26;;;;;;;64.22;38.73;;;;;;;0.25;72.40;102135.52;1763597;81;25662;-63
2022/12/31 04:54:52;;;;;;;58.90;34.98;;;;;;;0.23;72.50;102132.50;1757044;81;25714;-63
2022/12/31 04:57:19;;;;;;;61.08;34.18;;;;;;;0.20;72.29;102136.53;1744935;82;25791;-63
2022/12/31 04:59:46;;;;;;;57.40;33.50;;;;;;;0.18;72.25;102144.98;1744678;82;29581;-63
2022/12/31 05:02:14;;;;;;;67.20;35.80;;;;;;;0.15;72.28;102135.31;1744682;82;25728;-63
2022/12/31 05:04:41;;;;;;;57.20;33.55;;;;;;;0.14;72.35;102134.45;1748126;81;25778;-63
2022/12/31 05:07:08;;;;;;;58.33;32.73;;;;;;;0.14;72.44;102139.75;1750540;81;25781;-63
2022/12/31 05:09:35;;;;;;;61.58;33.67;;;;;;;0.12;72.46;102141.55;1750858;81;25769;-64
2022/12/31 05:12:04;;;;;;;58.87;34.27;;;;;;;0.12;72.54;102135.41;1750793;81;27468;-64
2022/12/31 05:14:31;;;;;;;56.68;33.78;;;;;;;0.12;72.74;102126.14;1750947;81;25693;-63
2022/12/31 05:16:58;;;;;;;58.52;33.60;;;;;;;0.15;72.83;102125.61;1750577;81;25768;-64
2022/12/31 05:19:24;;;;;;;56.90;31.50;;;;;;;0.15;72.75;102126.05;1750602;81;25914;-64
2022/12/31 05:24:37;;;;;;;60.45;33.67;;;;;;;0.14;72.79;102124.30;1744768;82;27505;-64
2022/12/31 05:27:04;;;;;;;62.30;34.18;;;;;;;0.12;72.89;102123.50;1744375;82;25818;-63
2022/12/31 05:29:31;;;;;;;58.48;32.90;;;;;;;0.09;72.85;102131.03;1744919;82;25807;-63
2022/12/31 05:31:58;;;;;;;68.97;34.92;;;;;;;0.08;72.81;102124.45;1744715;82;26314;-64
2022/12/31 05:34:25;;;;;;;62.43;35.15;;;;;;;0.08;72.97;102131.07;1732827;82;25794;-63
2022/12/31 05:36:52;;;;;;;56.10;34.60;;;;;;;0.08;72.91;102134.61;1732496;81;27547;-64
2022/12/31 05:39:19;;;;;;;58.33;35.43;;;;;;;0.05;72.88;102139.95;1750560;81;25814;-64
2022/12/31 05:41:46;;;;;;;62.75;33.80;;;;;;;0.06;72.92;102142.13;1748099;82;25705;-63
2022/12/31 05:44:13;;;;;;;61.90;33.38;;;;;;;0.07;72.82;102147.85;1733871;82;25742;-63
2022/12/31 05:46:40;;;;;;;63.20;34.65;;;;;;;0.08;73.00;102154.89;1721060;83;25762;-64
2022/12/31 05:49:07;;;;;;;63.85;33.53;;;;;;;0.08;72.93;102153.56;1720973;83;29624;-63
2022/12/31 05:51:34;;;;;;;66.12;34.88;;;;;;;0.09;73.04;102153.98;1721077;83;25806;-63
2022/12/31 05:54:00;;;;;;;62.10;34.88;;;;;;;0.08;73.15;102150.48;1716159;82;25758;-64
2022/12/31 05:56:27;;;;;;;61.58;34.95;;;;;;;0.11;73.31;102153.04;1709903;82;25942;-63
2022/12/31 05:58:54;;;;;;;61.92;35.50;;;;;;;0.15;73.44;102144.58;1710156;83;25498;-63
2022/12/31 06:01:21;;;;;;;62.05;36.53;;;;;;;0.17;73.32;102149.86;1710092;82;27532;-63
2022/12/31 06:03:48;;;;;;;61.42;36.28;;;;;;;0.19;73.37;102147.58;1710186;82;25689;-63
2022/12/31 06:06:15;;;;;;;67.67;37.08;;;;;;;0.24;73.53;102145.69;1709876;82;25708;-64
2022/12/31 06:08:42;;;;;;;61.65;36.95;;;;;;;0.27;73.56;102157.54;1710153;82;27869;-65
2022/12/31 06:11:08;;;;;;;68.28;37.50;;;;;;;0.28;73.83;102163.25;1710280;82;25844;-65
2022/12/31 06:13:36;;;;;;;68.02;36.58;;;;;;;0.30;73.75;102165.86;1710190;83;27501;-64
2022/12/31 06:16:08;;;;;;;64.55;36.50;;;;;;;0.32;73.85;102157.43;1710255;83;25758;-65
2022/12/31 06:18:35;;;;;;;63.00;35.92;;;;;;;0.36;73.79;102162.20;1710227;83;25724;-63
2022/12/31 06:21:03;;;;;;;70.85;36.63;;;;;;;0.36;73.95;102165.70;1710379;82;25886;-63
2022/12/31 06:23:30;;;;;;;61.15;35.63;;;;;;;0.39;73.95;102172.26;1710239;83;25792;-63
2022/12/31 06:26:03;;;;;;;71.72;37.70;;;;;;;0.42;73.97;102175.28;1710207;82;27608;-62
2022/12/31 06:28:30;;;;;;;69.47;38.78;;;;;;;0.46;73.96;102171.67;1710085;83;25725;-63
2022/12/31 06:31:02;;;;;;;73.95;36.35;;;;;;;0.52;74.16;102174.62;1710503;82;25740;-63
2022/12/31 06:33:29;;;;;;;63.28;36.77;;;;;;;0.56;74.11;102179.81;1714131;83;25863;-63
2022/12/31 06:35:59;;;;;;;67.22;35.60;;;;;;;0.55;73.84;102174.10;1720947;83;25763;-64
2022/12/31 06:38:29;;;;;;;70.62;37.95;;;;;;;0.57;73.98;102185.53;1721263;83;27677;-63
2022/12/31 06:40:56;;;;;;;69.27;38.95;;;;;;;0.59;74.18;102196.94;1721120;82;25539;-64
2022/12/31 06:43:23;;;;;;;66.30;39.00;;;;;;;0.64;74.36;102195.50;1720545;81;25530;-64
2022/12/31 06:45:50;;;;;;;78.67;43.73;;;;;;;0.70;74.39;102197.14;1703996;84;25790;-64
2022/12/31 06:48:17;;;;;;;78.00;44.05;;;;;;;0.75;74.49;102189.97;1742304;82;25707;-65
2022/12/31 06:50:44;;;;;;;75.37;41.73;;;;;;;0.82;74.39;102190.66;1703982;84;27474;-64
2022/12/31 06:53:12;;;;;;;75.72;41.45;;;;;;;0.86;74.21;102191.88;1741914;82;25722;-64
2022/12/31 06:55:41;;;;;;;71.55;40.05;;;;;;;0.90;74.29;102196.20;1704088;84;25841;-64
2022/12/31 06:58:12;;;;;;;85.00;47.58;;;;;;;0.97;74.55;102204.88;1742351;82;26671;-64
2022/12/31 07:00:44;;;;;;;74.25;43.13;;;;;;;1.02;74.71;102202.96;1704152;83;26385;-64
2022/12/31 07:03:31;;;;;;;71.22;41.60;;;;;;;1.07;74.68;102202.41;1781289;80;27479;-65
2022/12/31 07:06:14;;;;;;;81.02;44.18;;;;;;;1.13;74.55;102209.30;1779176;80;25756;-64
2022/12/31 07:08:52;;;;;;;79.17;44.70;;;;;;;1.16;74.49;102207.91;1779627;80;26841;-64
2022/12/31 07:11:28;;;;;;;75.40;43.02;;;;;;;1.22;74.70;102214.84;1779349;80;25648;-64
2022/12/31 07:14:03;;;;;;;74.80;40.15;;;;;;;1.32;75.10;102218.10;1766473;80;26395;-65
2022/12/31 07:17:00;;;;;;;72.75;37.08;;;;;;;1.42;75.36;102221.40;1747827;80;27516;-65
2022/12/31 07:19:49;;;;;;;69.32;38.45;;;;;;;1.52;75.47;102209.16;1747942;80;25799;-63
2022/12/31 07:22:17;;;;;;;67.67;36.73;;;;;;;1.62;75.54;102211.09;1767057;80;25923;-64
2022/12/31 07:24:46;;;;;;;63.50;39.23;;;;;;;1.72;75.41;102212.58;1748665;80;26398;-64
2022/12/31 07:27:40;;;;;;;76.90;41.00;;;;;;;1.81;75.55;102211.89;1748038;82;25786;-64
2022/12/31 07:30:30;;;;;;;83.60;42.88;;;;;;;1.93;75.67;102206.72;1748221;80;27472;-64
2022/12/31 07:33:24;;;;;;;75.00;44.73;;;;;;;2.06;75.76;102209.87;1747673;81;26475;-63
2022/12/31 07:36:24;;;;;;;73.57;42.57;;;;;;;2.15;75.86;102212.26;1733618;82;25771;-63
2022/12/31 07:39:05;;;;;;;69.65;40.80;;;;;;;2.28;75.84;102216.73;1741283;82;25822;-63
2022/12/31 07:41:49;;;;;;;74.58;42.03;;;;;;;2.37;75.61;102209.81;1741098;82;25469;-64
2022/12/31 07:44:46;;;;;;;65.37;37.60;;;;;;;2.47;75.47;102211.24;1756110;78;27412;-64
2022/12/31 07:47:23;;;;;;;75.10;40.67;;;;;;;2.58;75.80;102212.25;1741128;82;25753;-64
2022/12/31 07:49:52;;;;;;;73.57;40.75;;;;;;;2.65;75.87;102215.55;1710665;83;25776;-63
2022/12/31 07:52:21;;;;;;;70.50;40.25;;;;;;;2.73;76.04;102220.20;1727561;82;26352;-63
2022/12/31 07:54:47;;;;;;;70.62;42.03;;;;;;;2.84;76.10;102216.29;1720883;82;25852;-64
2022/12/31 07:57:17;;;;;;;67.60;39.35;;;;;;;2.91;76.12;102205.42;1719422;82;27530;-64
2022/12/31 07:59:55;;;;;;;77.32;40.40;;;;;;;3.02;76.33;102213.02;1712141;82;25996;-65
2022/12/31 08:02:46;;;;;;;68.42;39.60;;;;;;;3.15;76.56;102213.47;1721187;82;25865;-65
2022/12/31 08:05:21;;;;;;;75.08;40.80;;;;;;;3.27;76.55;102216.20;1713588;82;25813;-65
2022/12/31 08:08:02;;;;;;;72.72;38.80;;;;;;;3.40;76.46;102218.81;1723381;82;26147;-64
2022/12/31 08:10:58;;;;;;;76.45;44.53;;;;;;;3.55;76.40;102229.83;1721397;82;27480;-64
2022/12/31 08:13:27;;;;;;;73.28;41.88;;;;;;;3.64;76.60;102229.50;1719670;82;26619;-64
2022/12/31 08:15:56;;;;;;;65.65;37.88;;;;;;;3.76;76.70;102231.73;1718663;82;25463;-64
2022/12/31 08:18:24;;;;;;;73.05;40.33;;;;;;;3.82;76.67;102222.66;1728884;82;25727;-64
2022/12/31 08:21:20;;;;;;;63.05;38.08;;;;;;;4.02;76.46;102222.38;1722185;81;25827;-64
2022/12/31 08:24:10;;;;;;;75.20;39.10;;;;;;;4.47;75.97;102226.86;1725717;81;29262;-65
2022/12/31 08:26:48;;;;;;;62.50;38.28;;;;;;;5.19;74.76;102223.48;1716762;82;26521;-64
2022/12/31 08:29:54;;;;;;;66.85;38.15;;;;;;;5.82;72.56;102213.65;1714980;82;25723;-65
2022/12/31 08:32:44;;;;;;;71.00;38.63;;;;;;;6.30;72.22;102211.47;1720145;81;26946;-64
2022/12/31 08:35:25;;;;;;;72.47;40.48;;;;;;;6.89;71.40;102210.34;1716918;82;25812;-64
2022/12/31 08:38:29;;;;;;;63.83;38.65;;;;;;;7.48;70.72;102209.17;1694673;83;27501;-65
2022/12/31 08:41:11;;;;;;;61.33;38.35;;;;;;;8.08;70.50;102210.43;1719857;82;34757;-65
2022/12/31 08:43:48;;;;;;;55.28;37.35;;;;;;;8.49;67.80;102191.66;1714106;82;25804;-64
2022/12/31 08:46:52;;;;;;;62.45;38.08;;;;;;;8.81;67.13;102192.49;1720134;82;25771;-65
2022/12/31 08:49:19;;;;;;;57.05;36.40;;;;;;;9.26;66.73;102188.52;1718356;82;25785;-65
2022/12/31 08:51:48;;;;;;;68.07;36.00;;;;;;;9.77;66.22;102186.72;1710606;82;27439;-65
2022/12/31 08:54:16;;;;;;;55.58;34.50;;;;;;;10.08;64.00;102176.73;1717843;82;25774;-66
2022/12/31 08:57:00;;;;;;;49.70;34.30;;;;;;;10.50;63.94;102156.58;1725763;82;25859;-65
2022/12/31 08:59:36;;;;;;;;;;;;;;;10.90;63.73;102149.84;1718317;82;26004;-65
2022/12/31 09:02:33;;;;;;;51.65;34.10;;;;;;;11.26;61.02;102146.94;1716055;82;26006;-65
2022/12/31 09:05:52;;;;;;;50.83;34.55;;;;;;;11.59;61.60;102149.59;1718649;82;27963;-65
2022/12/31 09:08:52;;;;;;;51.37;34.03;;;;;;;11.96;60.25;102161.41;1663819;84;25875;-66
2022/12/31 09:11:37;;;;;;;60.10;30.85;;;;;;;12.47;58.75;102161.73;1713471;83;25725;-65
2022/12/31 09:14:36;;;;;;;46.88;31.77;;;;;;;12.88;58.70;102151.48;1716794;82;25838;-65
2022/12/31 09:17:18;;;;;;;47.40;31.95;;;;;;;13.37;58.54;102150.39;1666572;84;25865;-66
2022/12/31 09:19:46;;;;;;;40.33;29.35;;;;;;;13.82;56.48;102147.36;1652778;86;27543;-66
2022/12/31 09:22:14;;;;;;;44.10;30.97;;;;;;;14.35;53.71;102141.23;1682278;83;25946;-66
2022/12/31 09:24:43;;;;;;;45.35;30.35;;;;;;;14.45;53.44;102143.55;1712701;82;25760;-66
2022/12/31 09:27:30;;;;;;;46.35;29.90;;;;;;;14.59;52.37;102136.97;1719602;82;25863;-67
2022/12/31 09:30:05;;;;;;;44.23;28.80;;;;;;;14.79;52.84;102136.66;1724678;82;25699;-65
2022/12/31 09:32:50;;;;;;;47.88;29.67;;;;;;;15.21;52.65;102135.81;1709973;82;28178;-65
2022/12/31 09:35:54;;;;;;;41.05;28.77;;;;;;;15.59;51.80;102128.88;1719353;82;26099;-66
2022/12/31 09:38:36;;;;;;;;;;;;;;;15.72;50.42;102127.29;1727524;81;26471;-66
2022/12/31 09:41:52;;;;;;;42.67;26.87;;;;;;;15.86;49.35;102124.73;1665561;83;25839;-65
2022/12/31 09:44:43;;;;;;;41.53;27.58;;;;;;;16.37;50.51;102113.34;1714452;79;25735;-65
2022/12/31 09:47:42;;;;;;;36.70;25.92;;;;;;;16.84;48.01;102107.17;1768918;79;28349;-65
2022/12/31 09:51:08;;;;;;;37.88;26.77;;;;;;;17.11;47.55;102106.09;1785178;79;25722;-65
2022/12/31 09:54:10;;;;;;;35.73;26.60;;;;;;;17.46;46.80;102112.20;1802242;79;25738;-66
2022/12/31 09:57:00;;;;;;;34.20;25.90;;;;;;;17.81;45.17;102101.59;1804400;79;25988;-66
2022/12/31 09:59:41;;;;;;;39.58;26.65;;;;;;;18.13;45.44;102107.96;1763017;81;25686;-66
2022/12/31 10:02:39;;;;;;;36.15;26.37;;;;;;;18.80;45.33;102109.43;1797215;79;28671;-67
2022/12/31 10:05:26;;;;;;;35.92;24.77;;;;;;;19.34;43.71;102107.11;1781590;79;25546;-67
2022/12/31 10:08:06;;;;;;;33.23;24.98;;;;;;;19.73;43.09;102095.67;1771344;79;25683;-66
2022/12/31 10:10:56;;;;;;;36.40;23.98;;;;;;;20.14;42.46;102101.31;1773291;79;28207;-66
2022/12/31 10:13:54;;;;;;;41.73;23.80;;;;;;;20.53;41.32;102101.19;1769335;81;44293;-68
2022/12/31 10:16:29;;;;;;;32.30;23.40;;;;;;;20.55;40.65;102101.01;1775049;79;28392;-67
2022/12/31 10:19:29;;;;;;;35.40;24.85;;;;;;;20.82;40.89;102101.23;1775696;79;26688;-66
2022/12/31 10:22:19;;;;;;;34.73;23.95;;;;;;;21.03;39.25;102097.95;1747293;81;25811;-67
2022/12/31 10:24:52;;;;;;;29.48;22.32;;;;;;;21.28;38.87;102094.31;1746510;81;25725;-65
2022/12/31 10:27:34;;;;;;;33.20;22.65;;;;;;;21.47;38.40;102094.42;1728673;82;27507;-65
2022/12/31 10:30:19;;;;;;;28.23;21.87;;;;;;;21.72;38.05;102099.33;1733408;82;27525;-65
2022/12/31 10:33:17;;;;;;;31.48;22.20;;;;;;;21.53;36.87;102095.94;1724731;82;25761;-66
2022/12/31 10:35:58;;;;;;;34.08;22.27;;;;;;;21.56;36.30;102096.94;1785055;79;25756;-65
2022/12/31 10:38:54;;;;;;;30.12;23.05;;;;;;;21.54;36.55;102093.55;1789673;78;25944;-66
2022/12/31 10:41:53;;;;;;;30.37;22.50;;;;;;;21.58;36.98;102095.44;1791247;79;25827;-66
2022/12/31 10:45:05;;;;;;;27.70;21.77;;;;;;;21.55;35.89;102085.67;1783927;79;27487;-65
2022/12/31 10:48:10;;;;;;;27.90;22.22;;;;;;;21.76;35.62;102089.70;1729179;81;25979;-67
2022/12/31 10:50:56;;;;;;;27.60;20.95;;;;;;;21.80;35.57;102081.98;1739937;81;25836;-66
2022/12/31 10:54:20;;;;;;;30.35;21.62;;;;;;;21.93;35.41;102071.80;1728881;80;25805;-67
2022/12/31 10:57:06;;;;;;;30.45;21.62;;;;;;;22.07;33.96;102071.05;1715216;83;25456;-67
2022/12/31 11:00:01;;;;;;;42.95;21.87;;;;;;;21.55;35.19;102057.42;1709431;82;28219;-67
2022/12/31 11:02:43;;;;;;;38.53;21.48;;;;;;;21.26;34.96;102046.08;1699655;83;25802;-66
2022/12/31 11:05:46;;;;;;;28.23;21.15;;;;;;;21.15;35.87;102042.34;1701700;84;25750;-66
2022/12/31 11:08:37;;;;;;;30.95;22.67;;;;;;;21.38;34.65;102038.86;1703019;83;25759;-66
2022/12/31 11:11:27;;;;;;;29.80;22.95;;;;;;;21.75;35.69;102044.17;1703654;83;25908;-66
2022/12/31 11:14:45;;;;;;;31.02;22.50;;;;;;;21.87;34.10;102038.63;1708195;82;27507;-66
2022/12/31 11:17:34;;;;;;;31.40;23.20;;;;;;;22.00;33.57;102043.52;1742109;81;26309;-66
2022/12/31 11:20:47;;;;;;;28.55;22.90;;;;;;;21.98;34.24;102042.84;1724625;82;25741;-65
2022/12/31 11:23:46;;;;;;;29.90;22.00;;;;;;;22.11;34.50;102037.28;1721598;81;25748;-65
2022/12/31 11:26:19;;;;;;;34.90;23.52;;;;;;;22.32;33.81;102027.02;1713725;82;25913;-66
2022/12/31 11:29:11;;;;;;;30.40;22.42;;;;;;;21.95;34.09;102016.33;1736776;80;27861;-66
2022/12/31 11:31:51;;;;;;;30.68;21.90;;;;;;;21.92;34.04;102020.81;1732103;82;25908;-66
2022/12/31 11:34:58;;;;;;;29.95;23.15;;;;;;;21.91;32.68;102018.58;1734665;81;25552;-65
2022/12/31 11:37:48;;;;;;;31.17;22.98;;;;;;;21.41;34.21;102019.33;1741896;80;25931;-65
2022/12/31 11:40:40;;;;;;;30.80;23.42;;;;;;;21.43;34.40;102019.48;1739052;81;25866;-65
2022/12/31 11:43:21;;;;;;;32.70;22.77;;;;;;;21.35;33.20;102021.41;1738011;80;28282;-65
2022/12/31 11:46:17;;;;;;;33.02;22.73;;;;;;;20.71;34.68;102024.97;1711800;81;25816;-65
2022/12/31 11:49:21;;;;;;;29.95;23.10;;;;;;;20.16;35.17;102016.44;1738011;80;25754;-65
2022/12/31 11:52:27;;;;;;;31.48;23.85;;;;;;;19.67;36.07;102034.42;1741413;82;26607;-64
2022/12/31 11:55:10;;;;;;;35.58;23.90;;;;;;;19.34;36.96;102037.53;1663893;83;26621;-65
2022/12/31 11:57:41;;;;;;;36.17;25.68;;;;;;;18.97;37.51;102025.89;1719772;83;26875;-65
2022/12/31 12:00:26;;;;;;;37.50;25.17;;;;;;;18.43;38.00;102026.84;1720264;83;25788;-64
2022/12/31 12:03:04;;;;;;;31.73;23.98;;;;;;;18.17;38.83;102038.19;1706889;83;25831;-64
2022/12/31 12:05:35;;;;;;;35.68;23.73;;;;;;;17.91;39.05;102037.07;1736467;80;26473;-65
2022/12/31 12:08:02;;;;;;;49.73;23.80;;;;;;;17.55;39.43;102041.57;1763168;80;25893;-65